North Cascades National Park, WA

9:59 AM PDT on March 29, 2015 (GMT -0700)
Newhalem Helistop | | Change Station
CLOSE
Current Station
Personal Weather Station
Location: Newhalem, WA
Elevation: 504 ft
Nearby Weather Stations

Elev 504 ft 48.67 °N, 121.25 °W | Updated 33 seconds ago

Overcast
Overcast
46.8 °F
Feels Like 47 °F
N
1.0
Wind Variable Wind from WNW
Gusts 3.0 mph

Today
High -- | Low -- °F
--% Chance of Precip.
Yesterday
High -- | Low -- °F
Precip. -- in
6:50 AM 7:31 PM
Waxing Gibbous, 72% visible
Pressure 30.24 in
Visibility 10.0 miles
Clouds Mostly Cloudy 4400 ft
Overcast 10000 ft
Windchill 47 °F
Dew Point 47 °F
Humidity 100%
Rainfall 0.07 in
Snow Depth Not available.
UV 0.5 out of 12
Pollen 6.80 out of 12
Air Quality Not available.
Flu Activity Not available.
METAR KAWO 291655Z AUTO 12009KT 10SM BKN044 OVC100 11/06 A3024 RMK AO1

More Conditions Fewer Conditions

Pressure 30.24 in
Visibility 10.0 miles
Clouds Mostly Cloudy 4400 ft
Overcast 10000 ft
Windchill 47 °F
Dew Point 47 °F
Humidity 100%
Rainfall 0.07 in
Snow Depth Not available.
UV 0.5 out of 12
Pollen 6.80 out of 12
Air Quality Not available.
Flu Activity Not available.
METAR KAWO 291655Z AUTO 12009KT 10SM BKN044 OVC100 11/06 A3024 RMK AO1

More Conditions Fewer Conditions

10-Day Weather Forecast

Almanac

Astronomy

Mar. 29, 2015 Rise Set
Actual Time
Civil Twilight
Nautical Twilight
Astronomical Twilight
Moon
Length of Visible Light
Length of Day
Tomorrow will be .
, % of the Moon is Illuminated

Today's Extremes

State Highs State Lows

Community

WunderPhotos

Upload Photos

1,809,289 photos uploaded!

WunderBlogs® & News

Nearby

Air Quality

  Air Quality AQ Index Pollutant
Not available.

Snow Depth

Station Depth Elevation

Earthquake Activity

City Distance Mag. Time & Date
Minimum magnitude displayed is 2.5.

Coastal Water Temperatures

Place Temperature

Stations

Nearby Weather Stations

Station Location Temp. Windchill Dew Point Humidity Wind Precip. Elev Updated Type